Terminal Aerodrome Forecast
Issued by NWS

Home | Current Version | Previous Version | Text Only | Print | Product List | Glossary Off
Versions: 1 2 3 4 5 6 7 8 9 10 11 12 13 14 15 16 17 18 19

000
FTUS43 KFGF 240100 AAA
TAFBJI
TAF AMD
KBJI 240128Z 2401/2424 28011KT P6SM OVC003
     FM240300 31013KT P6SM -FZDZ OVC003
     FM240400 31015G22KT 4SM -SN BKN012=

USA.gov is the U.S. government's official web portal to all federal, state and local government web resources and services.